createdAt,value
2023-02-12T00:01:13.094Z,100712.59
2023-02-12T00:03:42.699Z,100714.28
2023-02-12T00:06:10.473Z,100705.47
2023-02-12T00:08:37.895Z,100709.84
2023-02-12T00:11:12.279Z,100708.06
2023-02-12T00:13:38.962Z,100723.06
2023-02-12T00:16:11.248Z,100709.84
2023-02-12T00:18:37.888Z,100725.63
2023-02-12T00:21:05.263Z,100712.47
2023-02-12T00:23:32.361Z,100718.56
2023-02-12T00:25:58.918Z,100713.38
2023-02-12T00:28:26.151Z,100724.88
2023-02-12T00:30:52.788Z,100714.22
2023-02-12T00:33:19.332Z,100727.28
2023-02-12T00:35:45.990Z,100728.94
2023-02-12T00:38:12.491Z,100728.19
2023-02-12T00:40:40.336Z,100728.19
2023-02-12T00:43:06.911Z,100726.38
2023-02-12T00:45:38.036Z,100728.03
2023-02-12T00:48:07.957Z,100732.41
2023-02-12T00:50:36.637Z,100730.69
2023-02-12T00:53:03.426Z,100733.38
2023-02-12T00:55:31.254Z,100736.84
2023-02-12T00:57:57.940Z,100743.84
2023-02-12T01:00:24.517Z,100731.50
2023-02-12T01:02:50.964Z,100734.09
2023-02-12T01:05:17.850Z,100734.91
2023-02-12T01:07:44.342Z,100734.03
2023-02-12T01:10:13.937Z,100741.00
2023-02-12T01:12:40.663Z,100737.47
2023-02-12T01:15:07.655Z,100733.94
2023-02-12T01:17:34.113Z,100738.38
2023-02-12T01:20:00.609Z,100742.69
2023-02-12T01:22:27.105Z,100745.31
2023-02-12T01:24:53.917Z,100750.56
2023-02-12T01:27:20.388Z,100747.03
2023-02-12T01:29:46.957Z,100741.78
2023-02-12T01:32:18.640Z,100736.53
2023-02-12T01:34:48.892Z,100741.78
2023-02-12T01:37:16.040Z,100742.63
2023-02-12T01:39:42.793Z,100734.72
2023-02-12T01:42:14.225Z,100741.72
2023-02-12T01:45:12.004Z,100738.31
2023-02-12T01:47:39.733Z,100735.63
2023-02-12T01:50:09.914Z,100732.09
2023-02-12T01:52:40.045Z,100740.78
2023-02-12T01:55:10.306Z,100741.72
2023-02-12T01:57:44.078Z,100744.34
2023-02-12T02:00:16.643Z,100738.16
2023-02-12T02:02:58.600Z,100744.34
2023-02-12T02:05:41.952Z,100749.69
2023-02-12T02:08:09.202Z,100742.63
2023-02-12T02:10:35.834Z,100738.16
2023-02-12T02:13:24.538Z,100752.16
2023-02-12T02:15:55.520Z,100749.50
2023-02-12T02:19:05.822Z,100755.59
2023-02-12T02:21:32.284Z,100741.56
2023-02-12T02:24:08.994Z,100742.53
2023-02-12T02:26:44.172Z,100740.72
2023-02-12T02:29:20.994Z,100739.00
2023-02-12T02:31:54.383Z,100739.81
2023-02-12T02:34:39.190Z,100738.94
2023-02-12T02:37:18.598Z,100734.56
2023-02-12T02:40:25.874Z,100733.66
2023-02-12T02:43:04.869Z,100736.31
2023-02-12T02:45:48.640Z,100739.81
2023-02-12T02:48:20.879Z,100734.72
2023-02-12T02:50:52.602Z,100733.00
2023-02-12T02:53:26.106Z,100728.56
2023-02-12T02:55:57.154Z,100726.00
2023-02-12T02:58:29.054Z,100732.00
2023-02-12T03:01:00.970Z,100740.78
2023-02-12T03:03:30.480Z,100740.78
2023-02-12T03:06:04.248Z,100742.53
2023-02-12T03:08:38.061Z,100739.81
2023-02-12T03:11:33.978Z,100738.03
2023-02-12T03:14:16.617Z,100740.72
2023-02-12T03:17:05.880Z,100741.63
2023-02-12T03:19:37.600Z,100746.88
2023-02-12T03:22:12.458Z,100747.72
2023-02-12T03:25:16.476Z,100746.81
2023-02-12T03:27:50.214Z,100752.25
2023-02-12T03:30:16.903Z,100755.78
2023-02-12T03:33:11.808Z,100761.03
2023-02-12T03:35:44.655Z,100760.13
2023-02-12T03:38:41.801Z,100757.41
2023-02-12T03:41:31.901Z,100753.94
2023-02-12T03:44:21.644Z,100757.41
2023-02-12T03:47:10.021Z,100756.56
2023-02-12T03:49:57.139Z,100755.59
2023-02-12T03:52:23.707Z,100765.25
2023-02-12T03:54:50.841Z,100770.50
2023-02-12T03:57:23.801Z,100771.41
2023-02-12T03:59:51.361Z,100761.78
2023-02-12T04:02:19.079Z,100765.41
2023-02-12T04:04:47.230Z,100768.81
2023-02-12T04:07:14.193Z,100781.97
2023-02-12T04:09:40.747Z,100780.19
2023-02-12T04:12:31.187Z,100774.84
2023-02-12T04:15:06.541Z,100776.81
2023-02-12T04:17:59.124Z,100789.13
2023-02-12T04:21:15.239Z,100775.16
2023-02-12T04:23:53.240Z,100785.50
2023-02-12T04:26:57.126Z,100795.06
2023-02-12T04:29:35.432Z,100794.25
2023-02-12T04:32:16.565Z,100801.16
2023-02-12T04:35:16.540Z,100807.31
2023-02-12T04:37:53.536Z,100805.59
2023-02-12T04:40:22.715Z,100809.06
2023-02-12T04:42:51.889Z,100804.63
2023-02-12T04:45:29.010Z,100815.16
2023-02-12T04:47:55.872Z,100810.84
2023-02-12T04:50:22.836Z,100818.63
2023-02-12T04:52:49.408Z,100813.28
2023-02-12T04:55:16.040Z,100816.75
2023-02-12T04:57:45.918Z,100820.22
2023-02-12T05:00:14.808Z,100820.16
2023-02-12T05:02:41.418Z,100813.09
2023-02-12T05:05:08.206Z,100820.06
2023-02-12T05:07:34.830Z,100821.66
2023-02-12T05:10:01.386Z,100826.78
2023-02-12T05:12:27.855Z,100830.25
2023-02-12T05:14:54.376Z,100823.03
2023-02-12T05:17:23.642Z,100830.09
2023-02-12T05:19:50.729Z,100834.47
2023-02-12T05:22:17.640Z,100833.41
2023-02-12T05:24:44.192Z,100838.66
2023-02-12T05:27:11.163Z,100839.50
2023-02-12T05:29:37.757Z,100836.84
2023-02-12T05:32:05.068Z,100842.13
2023-02-12T05:34:31.590Z,100845.56
2023-02-12T05:37:00.920Z,100846.47
2023-02-12T05:39:27.420Z,100848.22
2023-02-12T05:41:53.898Z,100853.41
2023-02-12T05:44:20.381Z,100848.06
2023-02-12T05:46:47.002Z,100849.81
2023-02-12T05:49:13.479Z,100852.50
2023-02-12T05:51:40.043Z,100849.03
2023-02-12T05:54:07.276Z,100857.75
2023-02-12T05:56:42.318Z,100855.19
2023-02-12T05:59:14.688Z,100854.31
2023-02-12T06:01:43.267Z,100850.78
2023-02-12T06:04:18.544Z,100850.78
2023-02-12T06:06:45.411Z,100851.59
2023-02-12T06:09:13.639Z,100853.34
2023-02-12T06:11:40.515Z,100855.06
2023-02-12T06:14:09.299Z,100847.25
2023-02-12T06:16:36.122Z,100852.50
2023-02-12T06:19:05.295Z,100859.56
2023-02-12T06:21:33.393Z,100857.75
2023-02-12T06:24:00.248Z,100852.50
2023-02-12T06:26:26.795Z,100854.22
2023-02-12T06:28:53.342Z,100859.56
2023-02-12T06:31:24.262Z,100862.19
2023-02-12T06:33:51.528Z,100869.19
2023-02-12T06:36:18.933Z,100863.03
2023-02-12T06:38:46.116Z,100868.28
2023-02-12T06:41:12.871Z,100873.53
2023-02-12T06:43:39.644Z,100870.84
2023-02-12T06:46:06.386Z,100870.91
2023-02-12T06:48:33.502Z,100873.53
2023-02-12T06:51:11.752Z,100877.00
2023-02-12T06:53:38.294Z,100872.56
2023-02-12T06:56:06.914Z,100877.91
2023-02-12T06:58:33.429Z,100878.78
2023-02-12T07:01:23.834Z,100879.69
2023-02-12T07:03:53.293Z,100884.06
2023-02-12T07:06:20.501Z,100891.94
2023-02-12T07:08:47.450Z,100884.88
2023-02-12T07:11:14.261Z,100888.41
2023-02-12T07:13:42.395Z,100890.22
2023-02-12T07:16:12.154Z,100902.47
2023-02-12T07:18:38.886Z,100892.78
2023-02-12T07:21:08.092Z,100900.66
2023-02-12T07:23:35.589Z,100897.97
2023-02-12T07:26:07.910Z,100895.41
2023-02-12T07:28:35.195Z,100905.09
2023-02-12T07:31:13.479Z,100906.91
2023-02-12T07:33:41.109Z,100903.44
2023-02-12T07:36:16.230Z,100899.97
2023-02-12T07:38:45.592Z,100912.28
2023-02-12T07:41:15.520Z,100907.03
2023-02-12T07:43:43.937Z,100911.53
2023-02-12T07:46:13.484Z,100906.28
2023-02-12T07:48:40.247Z,100916.78
2023-02-12T07:51:12.057Z,100915.09
2023-02-12T07:53:39.119Z,100914.41
2023-02-12T07:56:11.600Z,100908.38
2023-02-12T07:58:39.555Z,100916.34
2023-02-12T08:01:14.763Z,100915.44
2023-02-12T08:03:41.630Z,100923.31
2023-02-12T08:06:12.754Z,100918.00
2023-02-12T08:08:42.065Z,100925.97
2023-02-12T08:11:11.059Z,100916.47
2023-02-12T08:13:37.893Z,100924.47
2023-02-12T08:16:07.720Z,100923.56
2023-02-12T08:18:35.006Z,100924.38
2023-02-12T08:21:06.252Z,100928.00
2023-02-12T08:23:33.163Z,100927.09
2023-02-12T08:26:23.876Z,100928.84
2023-02-12T08:28:53.696Z,100933.34
2023-02-12T08:31:25.900Z,100938.59
2023-02-12T08:33:55.147Z,100934.38
2023-02-12T08:36:27.019Z,100933.69
2023-02-12T08:38:54.491Z,100932.72
2023-02-12T08:41:23.836Z,100932.84
2023-02-12T08:43:54.765Z,100935.63
2023-02-12T08:46:30.621Z,100941.94
2023-02-12T08:49:01.287Z,100943.66
2023-02-12T08:51:32.666Z,100942.00
2023-02-12T08:54:01.506Z,100945.59
2023-02-12T08:56:30.134Z,100949.38
2023-02-12T08:58:57.952Z,100945.78
2023-02-12T09:01:26.935Z,100951.09
2023-02-12T09:03:53.921Z,100955.31
2023-02-12T09:06:22.279Z,100960.44
2023-02-12T09:08:48.826Z,100956.00
2023-02-12T09:11:17.944Z,100958.69
2023-02-12T09:13:46.465Z,100962.28
2023-02-12T09:16:13.960Z,100964.84
2023-02-12T09:18:40.892Z,100965.16
2023-02-12T09:21:11.062Z,100965.44
2023-02-12T09:23:38.794Z,100976.13
2023-02-12T09:26:09.865Z,100963.94
2023-02-12T09:28:37.402Z,100968.50
2023-02-12T09:31:08.945Z,100972.09
2023-02-12T09:33:35.842Z,100984.31
2023-02-12T09:36:07.156Z,100980.84
2023-02-12T09:38:33.845Z,100983.59
2023-02-12T09:41:22.059Z,100985.41
2023-02-12T09:44:10.000Z,100994.25
2023-02-12T09:46:59.657Z,100995.22
2023-02-12T09:49:54.278Z,100991.09
2023-02-12T09:52:26.818Z,100991.28
2023-02-12T09:54:53.668Z,100998.34
2023-02-12T09:57:34.619Z,100997.13
2023-02-12T10:00:17.715Z,101003.31
2023-02-12T10:02:44.507Z,100996.31
2023-02-12T10:05:20.143Z,100991.03
2023-02-12T10:08:10.368Z,100999.19
2023-02-12T10:11:01.208Z,100986.41
2023-02-12T10:13:36.768Z,100996.28
2023-02-12T10:16:14.849Z,100992.16
2023-02-12T10:18:50.434Z,101003.47
2023-02-12T10:21:42.682Z,101000.72
2023-02-12T10:24:12.076Z,101003.34
2023-02-12T10:26:43.463Z,101001.81
2023-02-12T10:29:24.101Z,101001.75
2023-02-12T10:32:00.677Z,101000.19
2023-02-12T10:34:33.476Z,101002.03
2023-02-12T10:37:32.482Z,101004.88
2023-02-12T10:40:06.379Z,101005.13
2023-02-12T10:42:43.621Z,101005.41
2023-02-12T10:45:19.734Z,101006.44
2023-02-12T10:47:48.054Z,100998.41
2023-02-12T10:50:17.487Z,101002.38
2023-02-12T10:52:57.261Z,101002.91
2023-02-12T10:55:29.439Z,100996.88
2023-02-12T10:57:57.052Z,101001.66
2023-02-12T11:00:29.076Z,101004.22
2023-02-12T11:03:06.484Z,100992.19
2023-02-12T11:05:35.879Z,100986.25
2023-02-12T11:08:02.998Z,100992.47
2023-02-12T11:10:36.316Z,100997.94
2023-02-12T11:13:03.706Z,100993.06
2023-02-12T11:15:46.029Z,100992.94
2023-02-12T11:18:25.222Z,100982.31
2023-02-12T11:21:07.652Z,100984.38
2023-02-12T11:23:39.449Z,100986.03
2023-02-12T11:26:18.028Z,100975.84
2023-02-12T11:28:53.697Z,100971.09
2023-02-12T11:31:32.324Z,100967.97
2023-02-12T11:34:04.786Z,100967.34
2023-02-12T11:36:35.556Z,100966.50
2023-02-12T11:39:03.730Z,100959.31
2023-02-12T11:41:39.552Z,100965.44
2023-02-12T11:44:18.741Z,100962.56
2023-02-12T11:46:58.720Z,100954.09
2023-02-12T11:49:31.902Z,100953.19
2023-02-12T11:52:01.459Z,100953.41
2023-02-12T11:54:33.920Z,100950.84
2023-02-12T11:57:00.391Z,100956.13
2023-02-12T11:59:29.548Z,100954.63
2023-02-12T12:02:06.362Z,100957.50
2023-02-12T12:04:35.720Z,100948.41
2023-02-12T12:07:11.923Z,100953.00
2023-02-12T12:09:46.146Z,100954.81
2023-02-12T12:12:29.742Z,100945.16
2023-02-12T12:15:44.675Z,100950.09
2023-02-12T12:18:49.275Z,100943.91
2023-02-12T12:21:26.530Z,100945.66
2023-02-12T12:24:03.172Z,100950.78
2023-02-12T12:26:32.172Z,100948.94
2023-02-12T12:29:20.183Z,100950.34
2023-02-12T12:31:50.670Z,100955.50
2023-02-12T12:34:23.894Z,100954.72
2023-02-12T12:36:59.467Z,100948.47
2023-02-12T12:39:55.238Z,100949.59
2023-02-12T12:42:33.891Z,100955.44
2023-02-12T12:45:18.765Z,100948.25
2023-02-12T12:47:56.681Z,100942.91
2023-02-12T12:50:35.849Z,100936.72
2023-02-12T12:53:17.738Z,100935.28
2023-02-12T12:56:05.307Z,100936.41
2023-02-12T12:58:39.096Z,100938.94
2023-02-12T13:01:30.625Z,100932.53
2023-02-12T13:04:18.565Z,100935.28
2023-02-12T13:07:19.547Z,100926.38
2023-02-12T13:10:21.250Z,100929.72
2023-02-12T13:13:06.832Z,100926.09
2023-02-12T13:16:01.208Z,100924.25
2023-02-12T13:19:03.393Z,100932.00
2023-02-12T13:21:46.329Z,100925.78
2023-02-12T13:24:22.337Z,100922.19
2023-02-12T13:26:53.573Z,100928.97
2023-02-12T13:29:37.080Z,100928.88
2023-02-12T13:32:12.002Z,100931.28
2023-02-12T13:34:42.111Z,100919.03
2023-02-12T13:37:17.413Z,100919.84
2023-02-12T13:39:47.291Z,100920.75
2023-02-12T13:42:35.883Z,100917.22
2023-02-12T13:45:18.184Z,100926.84
2023-02-12T13:48:04.610Z,100913.81
2023-02-12T13:50:48.876Z,100912.94
2023-02-12T13:53:44.722Z,100900.63
2023-02-12T13:56:27.956Z,100902.50
2023-02-12T13:59:00.804Z,100904.28
2023-02-12T14:01:41.666Z,100906.94
2023-02-12T14:04:15.822Z,100896.50
2023-02-12T14:07:01.336Z,100896.63
2023-02-12T14:09:42.226Z,100905.56
2023-02-12T14:12:14.496Z,100912.66
2023-02-12T14:14:48.345Z,100902.78
2023-02-12T14:17:30.827Z,100908.00
2023-02-12T14:20:27.608Z,100908.06
2023-02-12T14:23:01.188Z,100913.44
2023-02-12T14:25:57.043Z,100910.84
2023-02-12T14:28:47.067Z,100914.31
2023-02-12T14:31:21.538Z,100919.53
2023-02-12T14:34:12.316Z,100924.56
2023-02-12T14:36:44.239Z,100917.22
2023-02-12T14:39:19.711Z,100925.00
2023-02-12T14:41:49.859Z,100919.53
2023-02-12T14:44:27.269Z,100928.22
2023-02-12T14:46:56.452Z,100926.28
2023-02-12T14:49:29.082Z,100927.06
2023-02-12T14:51:58.646Z,100926.22
2023-02-12T14:54:33.222Z,100922.69
2023-02-12T14:57:05.681Z,100924.38
2023-02-12T14:59:37.478Z,100927.84
2023-02-12T15:02:06.118Z,100937.41
2023-02-12T15:04:37.821Z,100930.34
2023-02-12T15:07:08.443Z,100919.81
2023-02-12T15:09:48.165Z,100933.72
2023-02-12T15:12:22.524Z,100931.94
2023-02-12T15:15:15.012Z,100936.31
2023-02-12T15:17:54.611Z,100925.75
2023-02-12T15:20:24.391Z,100934.50
2023-02-12T15:22:51.007Z,100932.72
2023-02-12T15:25:24.898Z,100932.72
2023-02-12T15:28:00.614Z,100937.09
2023-02-12T15:30:34.114Z,100929.13
2023-02-12T15:33:04.216Z,100928.16
2023-02-12T15:35:37.104Z,100930.63
2023-02-12T15:38:04.354Z,100924.47
2023-02-12T15:40:31.747Z,100932.31
2023-02-12T15:43:18.228Z,100931.28
2023-02-12T15:45:51.539Z,100926.72
2023-02-12T15:48:21.141Z,100933.63
2023-02-12T15:51:09.914Z,100922.06
2023-02-12T15:53:38.636Z,100921.16
2023-02-12T15:56:05.776Z,100926.38
2023-02-12T15:58:46.822Z,100921.09
2023-02-12T16:01:18.352Z,100923.69
2023-02-12T16:03:50.765Z,100922.78
2023-02-12T16:06:18.839Z,100923.56
2023-02-12T16:08:48.460Z,100931.38
2023-02-12T16:11:24.302Z,100926.81
2023-02-12T16:13:53.947Z,100931.19
2023-02-12T16:16:24.886Z,100934.56
2023-02-12T16:19:23.793Z,100936.31
2023-02-12T16:22:01.269Z,100933.69
2023-02-12T16:24:40.049Z,100938.94
2023-02-12T16:27:18.200Z,100935.34
2023-02-12T16:29:48.039Z,100926.44
2023-02-12T16:32:33.998Z,100934.34
2023-02-12T16:35:11.267Z,100939.56
2023-02-12T16:37:37.698Z,100943.03
2023-02-12T16:40:13.160Z,100948.28
2023-02-12T16:42:56.171Z,100954.41
2023-02-12T16:45:28.666Z,100954.34
2023-02-12T16:48:07.377Z,100953.44
2023-02-12T16:50:36.089Z,100956.13
2023-02-12T16:53:08.438Z,100963.06
2023-02-12T16:55:36.754Z,100963.00
2023-02-12T16:58:03.251Z,100949.78
2023-02-12T17:00:29.719Z,100966.41
2023-02-12T17:02:57.400Z,100966.31
2023-02-12T17:05:24.600Z,100963.66
2023-02-12T17:07:51.252Z,100965.50
2023-02-12T17:10:17.987Z,100963.66
2023-02-12T17:12:49.913Z,100964.66
2023-02-12T17:15:38.100Z,100964.59
2023-02-12T17:18:04.688Z,100965.50
2023-02-12T17:20:31.213Z,100968.94
2023-02-12T17:22:59.429Z,100963.66
2023-02-12T17:25:25.904Z,100972.41
2023-02-12T17:27:52.371Z,100975.03
2023-02-12T17:30:24.250Z,100972.41
2023-02-12T17:32:51.431Z,100974.22
2023-02-12T17:35:18.618Z,100980.31
2023-02-12T17:37:45.284Z,100981.13
2023-02-12T17:40:12.634Z,100981.13
2023-02-12T17:42:39.407Z,100985.50
2023-02-12T17:45:06.461Z,100987.25
2023-02-12T17:47:39.638Z,100985.50
2023-02-12T17:50:09.273Z,100986.34
2023-02-12T17:52:35.767Z,100981.91
2023-02-12T17:55:02.302Z,100982.81
2023-02-12T17:57:28.864Z,100987.09
2023-02-12T17:59:55.378Z,100988.84
2023-02-12T18:02:21.923Z,100982.69
2023-02-12T18:04:48.456Z,100982.69
2023-02-12T18:07:15.028Z,100990.63
2023-02-12T18:09:41.636Z,100982.81
2023-02-12T18:12:08.445Z,100986.28
2023-02-12T18:14:35.078Z,100978.44
2023-02-12T18:17:01.675Z,100982.88
2023-02-12T18:19:29.347Z,100987.19
2023-02-12T18:21:55.825Z,100989.75
2023-02-12T18:24:22.511Z,100981.91
2023-02-12T18:26:49.063Z,100984.53
2023-02-12T18:29:15.621Z,100981.91
2023-02-12T18:31:42.183Z,100984.47
2023-02-12T18:34:08.828Z,100987.03
2023-02-12T18:36:35.334Z,100987.03
2023-02-12T18:39:01.858Z,100987.03
2023-02-12T18:41:34.765Z,100987.09
2023-02-12T18:44:01.751Z,100987.09
2023-02-12T18:46:30.293Z,100985.25
2023-02-12T18:48:58.324Z,100983.56
2023-02-12T18:51:27.877Z,100987.81
2023-02-12T18:54:02.909Z,100982.53
2023-02-12T18:56:32.851Z,100979.91
2023-02-12T18:59:01.013Z,100977.28
2023-02-12T19:01:31.170Z,100984.28
2023-02-12T19:04:00.308Z,100978.91
2023-02-12T19:06:28.199Z,100986.69
2023-02-12T19:08:56.873Z,100993.59
2023-02-12T19:11:23.530Z,100987.50
2023-02-12T19:13:50.570Z,100990.91
2023-02-12T19:16:23.560Z,101001.38
2023-02-12T19:18:55.087Z,100997.78
2023-02-12T19:21:26.023Z,100998.50
2023-02-12T19:23:57.206Z,101001.06
2023-02-12T19:26:26.911Z,101009.78
2023-02-12T19:28:53.467Z,101005.28
2023-02-12T19:31:29.261Z,101003.50
2023-02-12T19:34:03.141Z,101011.38
2023-02-12T19:36:32.830Z,101014.78
2023-02-12T19:39:06.168Z,101012.22
2023-02-12T19:41:35.732Z,101005.16
2023-02-12T19:44:02.215Z,100997.91
2023-02-12T19:46:31.325Z,101005.75
2023-02-12T19:49:00.617Z,100999.59
2023-02-12T19:51:29.567Z,101003.81
2023-02-12T19:54:04.394Z,101000.22
2023-02-12T19:56:31.432Z,100995.78
2023-02-12T19:58:58.768Z,101001.03
2023-02-12T20:01:26.289Z,101000.22
2023-02-12T20:03:53.992Z,100997.56
2023-02-12T20:06:28.296Z,101000.03
2023-02-12T20:08:55.163Z,100997.34
2023-02-12T20:11:25.051Z,101002.59
2023-02-12T20:13:51.717Z,101002.59
2023-02-12T20:16:24.170Z,100998.25
2023-02-12T20:18:54.861Z,101002.59
2023-02-12T20:21:24.761Z,101006.06
2023-02-12T20:23:51.546Z,101007.84
2023-02-12T20:26:19.856Z,101005.22
2023-02-12T20:28:47.060Z,101011.25
2023-02-12T20:31:19.560Z,101012.22
2023-02-12T20:33:46.772Z,101016.59
2023-02-12T20:36:16.387Z,101010.44
2023-02-12T20:38:44.841Z,101011.31
2023-02-12T20:41:11.972Z,101018.25
2023-02-12T20:43:38.817Z,101014.66
2023-02-12T20:46:07.354Z,101019.91
2023-02-12T20:48:34.046Z,101020.81
2023-02-12T20:51:05.787Z,101025.31
2023-02-12T20:53:39.514Z,101022.59
2023-02-12T20:56:09.501Z,101011.31
2023-02-12T20:58:36.514Z,101022.69
2023-02-12T21:01:24.282Z,101017.50
2023-02-12T21:03:55.764Z,101018.44
2023-02-12T21:06:24.460Z,101021.91
2023-02-12T21:08:51.324Z,101025.44
2023-02-12T21:11:23.951Z,101015.81
2023-02-12T21:13:58.764Z,101021.19
2023-02-12T21:16:34.626Z,101014.84
2023-02-12T21:19:01.373Z,101011.38
2023-02-12T21:21:31.600Z,101013.19
2023-02-12T21:24:00.270Z,101007.13
2023-02-12T21:26:29.158Z,101006.19
2023-02-12T21:28:57.483Z,100999.06
2023-02-12T21:31:25.292Z,101000.88
2023-02-12T21:33:53.984Z,101004.41
2023-02-12T21:36:23.662Z,101005.22
2023-02-12T21:38:51.704Z,100999.91
2023-02-12T21:41:21.717Z,101010.44
2023-02-12T21:43:54.025Z,101010.44
2023-02-12T21:46:22.480Z,100998.09
2023-02-12T21:48:49.511Z,101000.88
2023-02-12T21:51:23.248Z,101003.44
2023-02-12T21:53:53.991Z,100999.75
2023-02-12T21:56:24.499Z,100991.88
2023-02-12T21:58:51.522Z,101002.53
2023-02-12T22:01:24.036Z,100999.91
2023-02-12T22:03:51.649Z,100997.41
2023-02-12T22:06:22.261Z,100997.41
2023-02-12T22:08:49.613Z,100992.25
2023-02-12T22:11:18.700Z,100994.94
2023-02-12T22:13:45.207Z,100994.03
2023-02-12T22:16:23.553Z,100985.16
2023-02-12T22:18:53.049Z,100979.75
2023-02-12T22:21:19.519Z,100984.09
2023-02-12T22:23:48.762Z,100979.75
2023-02-12T22:26:21.629Z,100981.63
2023-02-12T22:29:10.118Z,100986.88
2023-02-12T22:31:42.215Z,100981.72
2023-02-12T22:34:15.350Z,100990.50
2023-02-12T22:36:42.450Z,100982.50
2023-02-12T22:39:10.657Z,100985.16
2023-02-12T22:41:37.911Z,100989.50
2023-02-12T22:44:12.385Z,100983.34
2023-02-12T22:46:38.902Z,100986.88
2023-02-12T22:49:05.458Z,100990.34
2023-02-12T22:51:32.660Z,100989.50
2023-02-12T22:53:59.244Z,100992.25
2023-02-12T22:56:26.530Z,100987.88
2023-02-12T22:58:57.688Z,100983.53
2023-02-12T23:01:25.049Z,100993.16
2023-02-12T23:03:52.314Z,100991.34
2023-02-12T23:06:21.509Z,100982.63
2023-02-12T23:09:05.409Z,100988.78
2023-02-12T23:11:33.722Z,100990.41
2023-02-12T23:14:02.908Z,100990.41
2023-02-12T23:16:29.551Z,100990.34
2023-02-12T23:19:00.498Z,100985.78
2023-02-12T23:21:28.919Z,100983.13
2023-02-12T23:23:56.298Z,100980.66
2023-02-12T23:26:26.460Z,100979.09
2023-02-12T23:28:53.186Z,100981.53
2023-02-12T23:31:19.834Z,100967.56
2023-02-12T23:33:58.991Z,100964.94
2023-02-12T23:36:29.036Z,100958.69
2023-02-12T23:38:55.579Z,100963.06
2023-02-12T23:41:22.132Z,100969.22
2023-02-12T23:43:48.723Z,100964.84
2023-02-12T23:46:15.219Z,100956.06
2023-02-12T23:48:45.178Z,100958.84
2023-02-12T23:51:11.667Z,100957.78
2023-02-12T23:53:38.183Z,100955.22
2023-02-12T23:56:11.934Z,100958.63
2023-02-12T23:58:38.454Z,100962.09
